Time;durP1;ratioP1;P1;durP2;ratioP2;P2;SDS_P1;SDS_P2;PMS_P1;PMS_P2;Temp;Humidity;BMP_temperature;BMP_pressure;BME280_temperature;BME280_humidity;BME280_pressure;Samples;Min_cycle;Max_cycle;Signal;HPM_P1;HPM_P2
2022/03/20 00:01:14;;;;;;;47.38;22.80;;;;;;;1.84;44.58;102835.63;5031861;28;20381;-77
2022/03/20 00:03:48;;;;;;;42.55;22.42;;;;;;;1.58;44.68;102807.19;5030177;28;20033;-76
2022/03/20 00:06:14;;;;;;;42.63;20.55;;;;;;;1.73;44.59;102834.50;5031489;28;20029;-76
2022/03/20 00:08:39;;;;;;;46.65;21.80;;;;;;;1.73;44.91;102846.53;5030127;28;20447;-76
2022/03/20 00:11:07;;;;;;;44.25;22.98;;;;;;;1.72;44.76;102835.69;5001054;28;20033;-76
2022/03/20 00:13:32;;;;;;;38.80;20.75;;;;;;;1.73;44.88;102838.13;5035277;28;20082;-77
2022/03/20 00:15:59;;;;;;;44.35;23.23;;;;;;;1.76;44.90;102836.59;5034968;28;20116;-77
2022/03/20 00:18:26;;;;;;;49.75;24.63;;;;;;;1.76;44.52;102839.41;5018450;28;20029;-76
2022/03/20 00:20:56;;;;;;;44.92;23.27;;;;;;;1.69;44.71;102834.38;5018453;28;20044;-76
2022/03/20 00:23:23;;;;;;;42.83;22.88;;;;;;;1.62;45.23;102828.56;5018647;28;20037;-76
2022/03/20 00:26:04;;;;;;;42.60;22.50;;;;;;;1.64;45.27;102826.22;5034619;28;20481;-76
2022/03/20 00:28:29;;;;;;;47.03;24.92;;;;;;;1.63;45.43;102827.38;5018242;28;20025;-77
2022/03/20 00:30:57;;;;;;;44.58;22.85;;;;;;;1.65;45.56;102829.84;5036086;28;20041;-76
2022/03/20 00:33:23;;;;;;;48.47;22.08;;;;;;;1.65;45.50;102827.84;5035868;28;20359;-76
2022/03/20 00:35:52;;;;;;;44.85;24.40;;;;;;;1.60;45.66;102824.47;5001751;28;20038;-76
2022/03/20 00:38:18;;;;;;;46.60;23.60;;;;;;;1.57;45.29;102819.59;5034461;28;20033;-77
2022/03/20 00:40:43;;;;;;;48.92;24.52;;;;;;;1.54;45.71;102823.91;5036527;28;20029;-77
2022/03/20 00:43:09;;;;;;;43.05;23.00;;;;;;;1.51;45.64;102818.19;5035758;28;20482;-76
2022/03/20 00:45:36;;;;;;;50.70;24.02;;;;;;;1.47;45.61;102815.28;5035527;28;20037;-77
2022/03/20 00:48:03;;;;;;;44.95;22.42;;;;;;;1.43;45.73;102821.97;5035529;28;20025;-77
2022/03/20 00:50:29;;;;;;;43.50;22.33;;;;;;;1.39;45.59;102818.19;5002037;28;20042;-75
2022/03/20 00:52:56;;;;;;;43.50;23.75;;;;;;;1.38;45.63;102811.81;5036715;28;20033;-76
2022/03/20 00:55:23;;;;;;;44.42;23.40;;;;;;;1.33;45.78;102806.44;5020622;28;20038;-76
2022/03/20 00:57:49;;;;;;;48.95;24.45;;;;;;;1.36;46.14;102813.31;5022477;28;20028;-76
2022/03/20 01:00:16;;;;;;;47.45;21.48;;;;;;;1.33;45.88;102817.66;5055471;28;20095;-76
2022/03/20 01:03:02;;;;;;;41.28;22.85;;;;;;;1.28;46.02;102820.72;5037940;28;20021;-76
2022/03/20 01:05:28;;;;;;;48.28;22.92;;;;;;;1.19;46.28;102801.16;5036753;28;20504;-76
2022/03/20 01:07:53;;;;;;;48.10;22.90;;;;;;;1.23;46.02;102806.91;5037167;28;20024;-75
2022/03/20 01:10:19;;;;;;;37.50;21.67;;;;;;;1.19;45.61;102812.41;5055060;28;20381;-76
2022/03/20 01:12:46;;;;;;;43.90;23.33;;;;;;;1.06;45.96;102784.72;5020676;28;20024;-75
2022/03/20 01:15:12;;;;;;;44.22;23.90;;;;;;;1.21;45.98;102812.88;5020533;28;20029;-75
2022/03/20 01:17:39;;;;;;;46.17;23.77;;;;;;;1.18;46.52;102809.97;5020358;28;20031;-75
2022/03/20 01:20:08;;;;;;;40.47;23.75;;;;;;;1.18;46.72;102805.19;5036760;28;20039;-75
2022/03/20 01:22:36;;;;;;;43.53;23.15;;;;;;;1.18;46.77;102805.19;5020643;28;20477;-75
2022/03/20 01:25:01;;;;;;;45.25;21.95;;;;;;;1.18;46.60;102807.16;5003963;28;20029;-75
2022/03/20 01:27:28;;;;;;;41.83;22.20;;;;;;;1.13;46.25;102804.59;5020316;28;20518;-76
2022/03/20 01:29:54;;;;;;;48.90;22.77;;;;;;;0.98;46.17;102782.88;5036452;28;20044;-76
2022/03/20 01:32:22;;;;;;;41.85;22.27;;;;;;;1.12;46.13;102802.94;5037718;28;20094;-75
2022/03/20 01:34:49;;;;;;;43.38;22.35;;;;;;;1.07;46.37;102797.56;5056378;28;20373;-76
2022/03/20 01:37:16;;;;;;;42.70;23.25;;;;;;;1.11;46.48;102799.31;5054881;28;20020;-75
2022/03/20 01:39:41;;;;;;;45.67;21.40;;;;;;;1.03;46.77;102785.44;5019641;28;20025;-75
2022/03/20 01:42:08;;;;;;;39.60;18.95;;;;;;;1.04;46.65;102789.84;5018837;28;20170;-76
2022/03/20 01:44:34;;;;;;;37.33;19.85;;;;;;;1.02;47.00;102792.22;5018658;28;20161;-76
2022/03/20 01:47:05;;;;;;;36.97;19.30;;;;;;;1.02;46.73;102792.22;5017428;28;20045;-76
2022/03/20 01:49:31;;;;;;;39.38;20.08;;;;;;;0.95;46.80;102789.16;5053002;28;20111;-76
2022/03/20 01:52:13;;;;;;;37.28;20.17;;;;;;;0.93;46.76;102797.94;5052233;28;20116;-76
2022/03/20 01:54:54;;;;;;;36.20;19.83;;;;;;;0.90;46.81;102792.19;5023611;28;20494;-76
2022/03/20 01:57:21;;;;;;;43.33;21.50;;;;;;;0.87;46.77;102785.31;5031689;28;20042;-76
2022/03/20 01:59:49;;;;;;;33.75;19.38;;;;;;;0.86;46.56;102789.28;5033010;28;20052;-75
2022/03/20 02:02:15;;;;;;;38.47;19.35;;;;;;;0.83;46.98;102798.41;5016552;28;20042;-75
2022/03/20 02:04:49;;;;;;;36.55;19.33;;;;;;;0.80;47.30;102791.50;4999918;28;20128;-75
2022/03/20 02:07:16;;;;;;;40.00;20.52;;;;;;;0.78;46.92;102779.84;5036978;28;20029;-75
2022/03/20 02:09:42;;;;;;;36.33;19.92;;;;;;;0.78;47.38;102782.66;5037465;28;20096;-76
2022/03/20 02:12:11;;;;;;;40.95;20.90;;;;;;;0.76;47.06;102779.38;5022967;28;20390;-75
2022/03/20 02:14:37;;;;;;;43.47;20.35;;;;;;;0.75;47.47;102774.09;5020763;28;20033;-76
2022/03/20 02:17:04;;;;;;;41.20;19.05;;;;;;;0.75;47.38;102774.91;5036804;28;20025;-75
2022/03/20 02:19:30;;;;;;;41.60;18.90;;;;;;;0.76;47.36;102778.53;5020071;28;20021;-76
2022/03/20 02:21:58;;;;;;;38.05;18.98;;;;;;;0.78;47.41;102773.41;5003604;28;20124;-75
2022/03/20 02:24:51;;;;;;;38.53;18.60;;;;;;;0.76;47.30;102770.94;5032368;28;20120;-75
2022/03/20 02:27:19;;;;;;;36.63;18.83;;;;;;;0.76;47.54;102772.94;5030623;28;20043;-75
2022/03/20 02:30:15;;;;;;;35.95;18.92;;;;;;;0.72;47.32;102784.03;5032377;28;20131;-76
2022/03/20 02:32:51;;;;;;;40.65;19.70;;;;;;;0.70;47.24;102775.16;5014135;28;20128;-75
2022/03/20 02:35:18;;;;;;;43.15;18.92;;;;;;;0.72;47.00;102778.44;5016155;28;20091;-76
2022/03/20 02:37:50;;;;;;;41.60;18.10;;;;;;;0.77;47.64;102777.38;5032250;28;20028;-75
2022/03/20 02:40:24;;;;;;;;;;;;;;;0.76;47.02;102779.38;5032667;28;20060;-75
2022/03/20 02:42:53;;;;;;;36.72;18.30;;;;;;;0.76;46.81;102782.16;5032222;28;19909;-75
2022/03/20 02:45:30;;;;;;;42.35;19.27;;;;;;;0.51;47.29;102748.88;4999450;28;20385;-75
2022/03/20 02:48:05;;;;;;;36.40;19.38;;;;;;;0.64;47.85;102779.34;5033377;28;20021;-76
2022/03/20 02:50:37;;;;;;;33.85;17.38;;;;;;;0.63;47.86;102783.34;5015613;28;20025;-76
2022/03/20 02:53:03;;;;;;;;;;;;;;;0.62;48.34;102783.69;4999777;28;20064;-76
2022/03/20 02:55:35;;;;;;;44.05;19.25;;;;;;;0.60;47.61;102784.03;5033393;28;19913;-75
2022/03/20 02:58:04;;;;;;;41.95;19.25;;;;;;;0.57;47.71;102795.13;5016392;28;20041;-76
2022/03/20 03:00:31;;;;;;;38.38;18.27;;;;;;;0.54;48.29;102787.44;5032547;28;20033;-76
2022/03/20 03:02:58;;;;;;;45.22;19.50;;;;;;;0.53;48.35;102797.00;5032256;28;20049;-76
2022/03/20 03:05:28;;;;;;;38.88;20.35;;;;;;;0.51;48.77;102788.13;5015946;28;20036;-76
2022/03/20 03:10:59;;;;;;;36.45;19.33;;;;;;;0.41;48.64;102800.59;5018607;28;20052;-76
2022/03/20 03:13:42;;;;;;;35.40;18.55;;;;;;;0.36;48.41;102798.03;5032050;28;20413;-75
2022/03/20 03:16:31;;;;;;;35.90;19.40;;;;;;;0.29;49.39;102803.41;5032210;28;20065;-76
2022/03/20 03:18:58;;;;;;;31.13;17.10;;;;;;;0.22;48.81;102797.53;5012207;28;20433;-74
2022/03/20 03:21:23;;;;;;;38.42;19.05;;;;;;;0.16;49.45;102796.94;5031675;28;20105;-75
2022/03/20 03:24:09;;;;;;;47.47;19.67;;;;;;;0.22;49.58;102798.34;5033095;28;20152;-75
2022/03/20 03:26:35;;;;;;;36.05;19.90;;;;;;;0.22;49.34;102808.75;5031635;28;20572;-76
2022/03/20 03:29:01;;;;;;;39.50;19.70;;;;;;;0.14;49.41;102799.28;5032881;28;20036;-75
2022/03/20 03:31:29;;;;;;;43.00;19.48;;;;;;;0.12;50.05;102801.59;5032770;28;20387;-76
2022/03/20 03:36:49;;;;;;;44.80;19.85;;;;;;;0.09;50.00;102812.69;5032033;28;20174;-75
2022/03/20 03:39:15;;;;;;;39.75;19.15;;;;;;;0.05;49.67;102811.75;5031675;28;20204;-75
2022/03/20 03:41:41;;;;;;;39.78;20.63;;;;;;;0.05;50.38;102806.16;5015101;28;20036;-76
2022/03/20 03:44:07;;;;;;;36.72;18.80;;;;;;;-0.05;50.32;102802.59;5014914;28;20401;-75
2022/03/20 03:46:32;;;;;;;43.65;20.10;;;;;;;0.00;50.33;102816.38;5018917;28;20043;-75
2022/03/20 03:48:58;;;;;;;39.58;19.27;;;;;;;-0.03;50.01;102807.84;5035466;28;20426;-77
2022/03/20 03:51:24;;;;;;;42.25;20.75;;;;;;;-0.07;50.71;102813.34;5019015;28;20029;-75
2022/03/20 03:54:02;;;;;;;38.35;19.13;;;;;;;-0.11;50.91;102814.38;5035167;28;20033;-75
2022/03/20 03:56:29;;;;;;;41.70;20.17;;;;;;;-0.14;50.86;102817.84;5018575;28;20061;-75
2022/03/20 03:58:54;;;;;;;37.83;19.23;;;;;;;-0.17;50.96;102815.75;5035240;28;20037;-74
2022/03/20 04:01:20;;;;;;;44.55;20.88;;;;;;;-0.23;51.15;102803.09;5035976;28;20390;-76
2022/03/20 04:03:47;;;;;;;39.20;21.00;;;;;;;-0.24;51.27;102807.88;5035418;28;20033;-76
2022/03/20 04:06:12;;;;;;;41.90;20.75;;;;;;;-0.26;51.43;102815.00;5018679;28;20045;-76
2022/03/20 04:08:37;;;;;;;45.92;20.30;;;;;;;-0.28;51.27;102818.13;5018639;28;20032;-76
2022/03/20 04:11:03;;;;;;;38.25;20.40;;;;;;;-0.33;51.48;102811.94;5035105;28;20029;-75
2022/03/20 04:13:29;;;;;;;41.97;20.80;;;;;;;-0.32;51.58;102814.41;5035171;28;20167;-76
2022/03/20 04:15:56;;;;;;;40.97;21.05;;;;;;;-0.32;51.78;102810.78;5036387;28;20399;-76
2022/03/20 04:18:23;;;;;;;46.00;22.77;;;;;;;-0.37;52.35;102808.19;5036149;28;20463;-75
2022/03/20 04:20:48;;;;;;;44.45;22.98;;;;;;;-0.41;51.65;102815.63;5034936;28;20033;-76
2022/03/20 04:25:58;;;;;;;43.75;21.08;;;;;;;-0.47;51.78;102818.63;5036740;28;20049;-75
2022/03/20 04:28:24;;;;;;;39.72;19.80;;;;;;;-0.49;51.79;102814.53;5036201;28;20028;-75
2022/03/20 04:30:49;;;;;;;44.40;20.90;;;;;;;-0.67;52.24;102794.28;5034590;28;20033;-74
2022/03/20 04:33:16;;;;;;;41.88;20.75;;;;;;;-0.51;51.90;102820.50;5034245;28;20398;-76
2022/03/20 04:35:44;;;;;;;44.03;21.75;;;;;;;-0.53;52.27;102814.41;5036000;28;20083;-75
2022/03/20 04:38:10;;;;;;;45.97;21.63;;;;;;;-0.56;52.07;102806.69;5035938;28;20375;-75
2022/03/20 04:40:37;;;;;;;48.63;20.27;;;;;;;-0.57;52.15;102815.44;5034434;28;20036;-76
2022/03/20 04:43:03;;;;;;;44.40;21.10;;;;;;;-0.58;52.23;102816.59;5034812;28;20035;-75
2022/03/20 04:45:29;;;;;;;46.35;22.67;;;;;;;-0.63;52.38;102814.81;5035889;28;20025;-75
2022/03/20 04:58:51;;;;;;;41.78;22.02;;;;;;;-0.63;52.22;102826.00;5064128;28;20043;-76
2022/03/20 05:01:17;;;;;;;42.33;22.30;;;;;;;-0.60;51.99;102816.13;5037089;28;20036;-75
2022/03/20 05:03:42;;;;;;;47.35;22.40;;;;;;;-0.60;52.56;102830.94;5055532;28;20106;-75
2022/03/20 05:06:09;;;;;;;47.60;24.08;;;;;;;-0.62;52.19;102824.84;5055197;28;20059;-75
2022/03/20 05:08:40;;;;;;;44.40;21.27;;;;;;;-0.55;52.63;102830.72;5037361;28;20032;-74
2022/03/20 05:13:49;;;;;;;44.95;21.75;;;;;;;-0.52;52.49;102837.63;5040226;28;20064;-77
2022/03/20 05:16:17;;;;;;;45.97;20.85;;;;;;;-0.48;52.54;102838.56;5037128;28;20473;-75
2022/03/20 05:18:42;;;;;;;48.78;23.48;;;;;;;-0.46;52.14;102842.69;5054818;28;20029;-76
2022/03/20 05:21:09;;;;;;;46.05;23.45;;;;;;;-0.46;52.08;102837.06;5037149;28;20094;-75
2022/03/20 05:23:37;;;;;;;48.42;22.10;;;;;;;-0.40;52.27;102843.28;5037480;28;20105;-75
2022/03/20 05:26:05;;;;;;;43.65;21.73;;;;;;;-0.35;52.28;102850.66;5036852;28;20024;-75
2022/03/20 05:28:31;;;;;;;42.80;22.38;;;;;;;-0.35;52.17;102851.50;5036912;28;20392;-76
2022/03/20 05:31:05;;;;;;;49.70;22.00;;;;;;;-0.25;52.73;102853.88;5037194;28;20033;-76
2022/03/20 05:33:32;;;;;;;41.15;21.23;;;;;;;-0.23;51.96;102851.53;5038200;28;20419;-76
2022/03/20 05:36:00;;;;;;;49.63;22.98;;;;;;;-0.13;52.63;102861.50;5038942;28;20021;-76
2022/03/20 05:38:25;;;;;;;52.70;22.50;;;;;;;-0.05;51.96;102869.03;5004068;28;20032;-76
2022/03/20 05:41:43;;;;;;;51.72;22.02;;;;;;;0.02;51.62;102868.44;5036858;28;20040;-76
2022/03/20 05:43:37;;;;;;;55.97;23.88;;;;;;;-0.04;51.89;102854.66;5053662;28;20033;-76
2022/03/20 05:46:03;;;;;;;44.42;21.30;;;;;;;0.15;51.56;102868.13;5054352;28;20036;-75
2022/03/20 05:48:30;;;;;;;44.22;22.55;;;;;;;0.25;51.10;102876.13;5054485;28;20024;-77
2022/03/20 05:50:56;;;;;;;44.22;23.00;;;;;;;0.14;50.98;102844.09;5054325;28;20037;-75
2022/03/20 05:53:23;;;;;;;49.20;24.95;;;;;;;0.37;50.71;102873.38;5018752;28;20485;-75
2022/03/20 05:58:44;;;;;;;58.53;26.83;;;;;;;0.61;50.42;102871.78;5038252;28;20029;-77
2022/03/20 06:01:10;;;;;;;53.35;24.67;;;;;;;0.69;50.22;102868.06;5036175;28;20082;-77
2022/03/20 06:03:36;;;;;;;48.97;25.02;;;;;;;0.80;50.14;102867.25;5036214;28;20049;-75
2022/03/20 06:06:02;;;;;;;53.58;24.90;;;;;;;0.91;49.71;102869.59;5036403;28;20378;-75
2022/03/20 06:08:28;;;;;;;57.08;26.98;;;;;;;1.03;49.44;102883.63;5035320;28;20450;-71
2022/03/20 06:10:54;;;;;;;50.13;25.00;;;;;;;1.15;49.31;102875.19;5036119;28;20029;-73
2022/03/20 06:13:31;;;;;;;54.10;24.65;;;;;;;1.28;49.68;102874.03;5054255;28;20027;-74
2022/03/20 06:15:59;;;;;;;53.65;24.60;;;;;;;1.58;49.05;102886.59;5003536;28;20028;-74
2022/03/20 06:18:29;;;;;;;55.83;24.10;;;;;;;2.59;47.63;102886.34;5054103;28;20029;-74
2022/03/20 06:20:57;;;;;;;50.50;25.15;;;;;;;3.97;44.81;102878.41;5036081;28;20119;-75
2022/03/20 06:23:27;;;;;;;47.25;22.85;;;;;;;5.41;41.98;102887.91;5057508;28;20118;-74
2022/03/20 06:25:54;;;;;;;45.85;21.83;;;;;;;7.28;38.74;102871.50;5056575;28;20033;-73
2022/03/20 06:28:20;;;;;;;45.42;22.02;;;;;;;9.41;36.36;102853.97;5056648;28;20021;-74
2022/03/20 06:30:48;;;;;;;39.55;21.83;;;;;;;11.42;32.74;102856.09;5055500;28;20390;-74
2022/03/20 06:33:15;;;;;;;41.08;21.08;;;;;;;12.35;30.61;102857.50;5055707;28;20049;-75
2022/03/20 06:35:43;;;;;;;40.80;20.92;;;;;;;12.83;27.27;102857.19;5056021;28;20021;-74
2022/03/20 06:38:10;;;;;;;41.88;21.17;;;;;;;13.08;27.15;102844.53;5054077;28;20051;-73
2022/03/20 06:40:36;;;;;;;40.45;21.08;;;;;;;14.18;26.70;102858.41;5035460;28;20423;-73
2022/03/20 06:43:02;;;;;;;35.42;20.58;;;;;;;15.67;23.00;102862.66;5053595;28;20028;-74
2022/03/20 06:45:29;;;;;;;34.45;21.08;;;;;;;16.84;20.75;102855.03;5053672;28;20056;-74
2022/03/20 06:47:54;;;;;;;36.28;21.05;;;;;;;17.29;19.45;102853.94;5019062;28;20458;-75
2022/03/20 06:50:21;;;;;;;32.65;20.95;;;;;;;17.78;19.71;102854.28;5052760;28;20033;-75
2022/03/20 06:52:47;;;;;;;34.05;20.15;;;;;;;18.25;18.65;102856.28;5052970;28;20045;-74
2022/03/20 06:55:15;;;;;;;36.85;22.50;;;;;;;17.43;19.26;102869.94;5053464;28;20029;-77
2022/03/20 06:57:49;;;;;;;35.85;21.50;;;;;;;16.66;19.21;102862.63;5011993;28;20136;-77
2022/03/20 07:00:16;;;;;;;36.13;21.00;;;;;;;17.28;18.84;102866.75;5028835;28;20030;-74
2022/03/20 07:02:44;;;;;;;37.13;21.85;;;;;;;18.12;18.11;102862.09;5013718;28;20048;-74
2022/03/20 07:05:09;;;;;;;34.83;21.30;;;;;;;19.00;17.28;102863.56;5013656;28;20112;-74
2022/03/20 07:07:35;;;;;;;36.13;20.08;;;;;;;19.67;16.93;102865.69;4995631;28;20121;-75
2022/03/20 07:10:03;;;;;;;36.15;22.50;;;;;;;20.28;16.37;102856.66;5012031;28;20037;-75
2022/03/20 07:12:29;;;;;;;34.80;21.60;;;;;;;20.95;15.41;102872.09;4995942;28;20034;-74
2022/03/20 07:14:55;;;;;;;36.92;22.65;;;;;;;21.28;14.52;102875.81;5013262;28;20061;-73
2022/03/20 07:17:21;;;;;;;34.85;20.80;;;;;;;21.37;14.99;102872.84;5013399;28;20042;-74
2022/03/20 07:19:49;;;;;;;34.97;21.00;;;;;;;21.57;14.22;102859.84;5012098;28;20410;-80
2022/03/20 07:22:16;;;;;;;34.10;21.77;;;;;;;21.68;14.97;102857.19;5012093;28;20533;-76
2022/03/20 07:24:44;;;;;;;35.05;21.52;;;;;;;21.86;14.02;102866.53;5012045;28;20041;-75
2022/03/20 07:30:10;;;;;;;43.63;23.00;;;;;;;20.65;14.89;102869.00;5026851;28;20157;-75
2022/03/20 07:32:36;;;;;;;38.10;23.33;;;;;;;20.63;15.25;102873.66;5013821;28;20386;-77
2022/03/20 07:35:02;;;;;;;36.88;23.17;;;;;;;20.51;15.44;102884.16;5013383;28;20034;-78
2022/03/20 07:37:28;;;;;;;36.78;24.40;;;;;;;20.48;15.19;102882.22;5012558;28;20096;-76
2022/03/20 07:39:54;;;;;;;40.65;24.17;;;;;;;20.22;14.73;102884.66;5013182;28;20037;-79
2022/03/20 07:42:23;;;;;;;39.83;24.63;;;;;;;19.73;16.05;102881.91;5026641;28;20025;-76
2022/03/20 07:44:49;;;;;;;36.05;22.48;;;;;;;19.44;15.41;102880.75;5015535;28;20029;-77
2022/03/20 07:47:20;;;;;;;35.17;22.98;;;;;;;17.99;16.37;102885.25;5031659;28;20033;-73
2022/03/20 07:49:48;;;;;;;43.58;23.80;;;;;;;17.21;17.13;102887.16;5031465;28;20041;-78
2022/03/20 07:52:14;;;;;;;43.83;25.20;;;;;;;17.40;17.45;102883.22;5032869;28;20036;-74
2022/03/20 07:54:39;;;;;;;41.53;26.38;;;;;;;17.83;17.53;102888.31;5031362;28;20223;-75
2022/03/20 07:57:05;;;;;;;42.47;25.80;;;;;;;18.36;16.34;102876.84;5031551;28;20107;-75
2022/03/20 07:59:31;;;;;;;43.40;25.13;;;;;;;18.05;16.65;102880.50;5031342;28;20034;-75
2022/03/20 08:01:56;;;;;;;44.13;26.88;;;;;;;17.89;16.97;102877.78;5014993;28;20100;-75
2022/03/20 08:04:23;;;;;;;38.05;23.88;;;;;;;17.26;16.88;102875.06;5015224;28;20041;-77
2022/03/20 08:07:04;;;;;;;43.63;27.15;;;;;;;16.65;17.52;102890.59;5031814;28;20034;-75
2022/03/20 08:09:31;;;;;;;47.17;25.42;;;;;;;16.25;18.09;102883.56;5032832;28;20091;-72
2022/03/20 08:11:56;;;;;;;42.30;25.17;;;;;;;16.19;18.32;102889.06;5032834;28;20102;-73
2022/03/20 08:14:23;;;;;;;46.47;25.10;;;;;;;15.99;18.52;102882.69;5029942;28;20069;-73
2022/03/20 08:16:52;;;;;;;39.30;24.02;;;;;;;15.68;18.77;102888.06;5031523;28;20033;-73
2022/03/20 08:19:19;;;;;;;43.97;25.88;;;;;;;15.42;19.71;102892.81;5031327;28;20037;-72
2022/03/20 08:22:05;;;;;;;40.88;25.50;;;;;;;15.27;20.14;102897.31;5032348;28;20052;-75
2022/03/20 08:24:31;;;;;;;43.47;24.17;;;;;;;15.14;19.68;102893.56;5032264;28;20026;-71
2022/03/20 08:26:57;;;;;;;41.38;24.35;;;;;;;15.02;19.30;102897.94;5031167;28;20033;-73
2022/03/20 08:29:23;;;;;;;43.30;24.38;;;;;;;14.75;20.38;102890.81;5032671;28;20113;-73
2022/03/20 08:31:54;;;;;;;38.70;24.27;;;;;;;15.00;19.44;102894.69;5032455;28;20047;-73
2022/03/20 08:34:22;;;;;;;41.42;25.58;;;;;;;15.08;20.34;102893.28;5035936;28;20083;-72
2022/03/20 08:36:47;;;;;;;40.70;25.70;;;;;;;15.47;19.93;102888.59;5036450;28;20029;-72
2022/03/20 08:39:13;;;;;;;45.55;25.85;;;;;;;15.77;18.96;102893.97;5036631;28;20094;-71
2022/03/20 08:41:40;;;;;;;41.90;24.33;;;;;;;15.62;19.35;102889.06;5019214;28;20038;-78
2022/03/20 08:44:08;;;;;;;41.65;25.05;;;;;;;15.53;19.75;102889.72;5024399;28;20014;-79
2022/03/20 08:46:49;;;;;;;40.78;24.15;;;;;;;15.60;19.22;102880.06;5036362;28;20083;-73
2022/03/20 08:49:14;;;;;;;36.30;23.67;;;;;;;15.35;19.82;102886.44;5035867;28;20462;-69
2022/03/20 08:51:40;;;;;;;41.95;26.25;;;;;;;15.37;20.10;102870.38;5036317;28;20040;-74
2022/03/20 08:54:06;;;;;;;39.45;24.48;;;;;;;15.39;19.84;102884.31;5035751;28;20489;-73
2022/03/20 08:56:33;;;;;;;40.60;23.40;;;;;;;15.08;19.88;102880.97;5018568;28;20131;-70
2022/03/20 08:58:59;;;;;;;40.35;24.95;;;;;;;14.81;19.96;102871.78;5036133;28;20470;-72
2022/03/20 09:01:25;;;;;;;35.47;23.80;;;;;;;14.63;20.47;102875.88;5030874;28;20025;-69
2022/03/20 09:03:54;;;;;;;43.67;24.67;;;;;;;14.75;21.25;102874.38;5011480;28;20037;-70
2022/03/20 09:06:22;;;;;;;42.15;24.40;;;;;;;14.74;21.18;102864.19;5023041;28;20045;-71
2022/03/20 09:08:50;;;;;;;36.33;24.02;;;;;;;14.64;20.92;102865.22;5016009;28;20068;-76
2022/03/20 09:11:18;;;;;;;38.45;23.90;;;;;;;14.51;20.71;102865.09;5007139;28;20148;-77
2022/03/20 09:13:58;;;;;;;39.97;24.58;;;;;;;14.30;21.17;102859.00;5015540;28;20113;-70
2022/03/20 09:19:13;;;;;;;41.17;25.75;;;;;;;13.95;21.20;102875.69;5026237;28;20121;-70
2022/03/20 09:21:38;;;;;;;41.30;25.48;;;;;;;13.50;22.17;102871.66;5007151;28;20407;-70
2022/03/20 09:24:06;;;;;;;39.55;23.85;;;;;;;13.24;22.06;102853.28;5025675;28;20080;-72
2022/03/20 09:26:32;;;;;;;40.92;23.67;;;;;;;13.19;22.83;102856.66;5005930;28;20038;-70
2022/03/20 09:29:04;;;;;;;44.17;23.90;;;;;;;13.21;22.59;102862.75;5023527;28;20049;-70
2022/03/20 09:31:33;;;;;;;43.35;24.02;;;;;;;13.21;22.50;102865.63;5024849;28;20071;-71
2022/03/20 09:34:00;;;;;;;39.55;23.10;;;;;;;13.17;22.73;102856.28;5025147;28;20104;-71
2022/03/20 09:36:28;;;;;;;37.75;22.92;;;;;;;13.09;23.50;102858.41;5022944;28;20080;-69
2022/03/20 09:38:53;;;;;;;45.22;24.20;;;;;;;13.14;23.08;102862.88;5024253;28;20065;-70
2022/03/20 09:41:21;;;;;;;40.83;23.60;;;;;;;13.26;23.27;102850.81;5023423;28;20156;-71
2022/03/20 09:43:47;;;;;;;41.90;24.00;;;;;;;13.42;23.63;102853.00;5006816;28;20029;-73
2022/03/20 09:46:19;;;;;;;38.97;23.77;;;;;;;13.41;22.43;102855.03;5023243;28;20383;-73
2022/03/20 09:48:46;;;;;;;41.90;24.30;;;;;;;13.25;22.47;102844.28;5022220;28;20037;-72
2022/03/20 09:51:12;;;;;;;40.00;23.75;;;;;;;13.16;24.08;102849.75;5025697;28;20466;-73
2022/03/20 09:53:37;;;;;;;40.63;23.13;;;;;;;13.24;23.21;102848.38;5014430;28;20066;-72
2022/03/20 09:56:05;;;;;;;42.25;24.98;;;;;;;13.34;23.41;102852.28;5027549;28;20053;-72
2022/03/20 09:58:31;;;;;;;32.90;21.58;;;;;;;13.49;22.66;102850.78;5041943;28;20374;-72
2022/03/20 10:00:57;;;;;;;41.38;23.45;;;;;;;13.54;23.47;102846.63;5000053;28;20505;-73
2022/03/20 10:03:25;;;;;;;39.25;23.02;;;;;;;13.55;22.90;102840.47;5034131;28;20021;-71
2022/03/20 10:06:16;;;;;;;37.40;21.92;;;;;;;13.57;22.34;102840.81;5034263;28;20078;-74
2022/03/20 10:09:08;;;;;;;42.42;24.08;;;;;;;13.49;22.96;102841.38;5017207;28;20123;-74
2022/03/20 10:11:51;;;;;;;34.60;21.05;;;;;;;13.55;22.74;102843.31;5034376;28;20036;-72
2022/03/20 10:14:22;;;;;;;30.25;20.67;;;;;;;13.39;22.48;102838.28;5034228;28;20351;-73
2022/03/20 10:17:16;;;;;;;41.22;23.30;;;;;;;13.29;23.33;102835.63;5045807;28;20036;-73
2022/03/20 10:19:42;;;;;;;35.28;22.00;;;;;;;13.34;23.19;102837.97;5023514;28;20048;-73
2022/03/20 10:22:12;;;;;;;37.90;22.17;;;;;;;13.36;23.70;102841.22;5032724;28;20029;-73
2022/03/20 10:24:39;;;;;;;32.83;22.33;;;;;;;13.42;22.60;102830.88;5050427;28;20112;-72
2022/03/20 10:27:06;;;;;;;33.05;19.48;;;;;;;13.34;22.24;102832.25;5032802;28;20025;-73
2022/03/20 10:29:33;;;;;;;32.33;20.33;;;;;;;13.12;22.45;102826.13;5016344;28;20033;-73
2022/03/20 10:32:11;;;;;;;33.72;20.63;;;;;;;13.03;22.95;102831.53;5051481;28;20407;-73
2022/03/20 10:35:06;;;;;;;34.03;21.50;;;;;;;13.12;24.29;102828.97;5052121;28;20029;-72
2022/03/20 10:37:51;;;;;;;38.58;21.42;;;;;;;13.23;23.36;102826.72;5052912;28;20025;-74
2022/03/20 10:40:20;;;;;;;35.85;20.90;;;;;;;13.16;23.52;102831.78;5052889;28;20028;-73
2022/03/20 10:43:09;;;;;;;36.38;20.30;;;;;;;13.15;23.70;102821.56;5007478;28;20036;-73
2022/03/20 10:45:54;;;;;;;31.92;19.65;;;;;;;13.22;22.70;102827.16;5035091;28;20036;-73
2022/03/20 10:48:36;;;;;;;28.88;18.48;;;;;;;13.27;22.49;102812.38;5033834;28;20052;-72
2022/03/20 10:51:02;;;;;;;;;;;;;;;13.25;22.86;102815.66;5034473;28;20462;-73
2022/03/20 10:53:28;;;;;;;32.20;18.80;;;;;;;13.20;22.45;102816.16;5034429;28;19920;-73
2022/03/20 10:56:05;;;;;;;31.33;19.70;;;;;;;13.09;23.43;102806.09;5053466;28;20433;-74
2022/03/20 10:58:36;;;;;;;30.73;18.90;;;;;;;13.05;23.56;102811.88;5032849;28;20422;-73
2022/03/20 11:01:02;;;;;;;28.53;16.87;;;;;;;13.08;23.09;102807.34;5035240;28;20033;-73
2022/03/20 11:03:28;;;;;;;33.65;17.33;;;;;;;13.06;22.53;102809.84;5035277;28;20037;-74
2022/03/20 11:05:57;;;;;;;26.48;16.00;;;;;;;12.96;22.34;102803.88;5018651;28;20366;-73
2022/03/20 11:08:26;;;;;;;28.80;16.83;;;;;;;12.85;22.24;102797.50;5018801;28;20417;-73
2022/03/20 11:11:00;;;;;;;28.27;15.27;;;;;;;12.83;21.96;102796.31;5053196;28;20029;-73
2022/03/20 11:13:29;;;;;;;27.88;15.48;;;;;;;12.76;22.78;102799.31;5035068;28;20082;-74
2022/03/20 11:15:57;;;;;;;30.83;16.63;;;;;;;12.82;23.06;102792.66;5035504;28;20025;-74
2022/03/20 11:18:26;;;;;;;28.13;15.07;;;;;;;12.68;22.27;102781.44;5018504;28;20466;-74
2022/03/20 11:20:53;;;;;;;21.40;14.23;;;;;;;12.63;22.56;102779.06;5018489;28;20074;-74
2022/03/20 11:23:19;;;;;;;21.42;14.57;;;;;;;12.73;22.74;102783.81;5018530;28;20415;-73
2022/03/20 11:25:45;;;;;;;26.33;15.65;;;;;;;12.76;23.22;102779.28;5052827;28;20036;-72
2022/03/20 11:28:27;;;;;;;27.70;15.82;;;;;;;12.73;22.62;102778.09;5018195;28;20032;-73
2022/03/20 11:30:57;;;;;;;25.05;15.63;;;;;;;12.65;22.51;102776.59;5035148;28;20032;-72
2022/03/20 11:33:24;;;;;;;21.42;12.60;;;;;;;12.62;21.62;102774.63;5018614;28;20055;-74
2022/03/20 11:35:50;;;;;;;24.15;13.57;;;;;;;12.58;22.20;102770.19;5018667;28;20117;-73
2022/03/20 11:38:24;;;;;;;24.30;14.30;;;;;;;12.62;22.03;102766.03;5034881;28;20056;-73
2022/03/20 11:41:10;;;;;;;23.85;14.38;;;;;;;12.63;22.45;102764.00;5052584;28;20083;-73
2022/03/20 11:43:38;;;;;;;23.20;13.88;;;;;;;12.70;22.90;102755.28;5052799;28;20029;-73
2022/03/20 11:46:30;;;;;;;22.27;14.00;;;;;;;12.85;22.58;102765.22;5034990;28;20474;-73
2022/03/20 11:49:26;;;;;;;19.90;12.27;;;;;;;12.91;21.52;102746.34;5034768;28;20029;-73
2022/03/20 11:52:15;;;;;;;21.33;14.18;;;;;;;12.89;21.07;102757.41;5002331;28;20033;-73
2022/03/20 11:54:41;;;;;;;20.42;13.27;;;;;;;12.81;21.31;102753.88;5052716;28;20044;-74